createdAt,value
2023-04-16T00:00:10.605Z,16.07
2023-04-16T00:02:41.600Z,14.50
2023-04-16T00:05:10.473Z,14.90
2023-04-16T00:07:39.758Z,14.60
2023-04-16T00:10:09.262Z,13.83
2023-04-16T00:12:37.386Z,14.07
2023-04-16T00:15:05.938Z,14.17
2023-04-16T00:17:33.859Z,12.63
2023-04-16T00:20:01.793Z,13.10
2023-04-16T00:22:29.717Z,12.30
2023-04-16T00:24:59.114Z,11.03
2023-04-16T00:27:27.347Z,11.40
2023-04-16T00:29:55.409Z,12.40
2023-04-16T00:32:24.314Z,11.80
2023-04-16T00:34:52.332Z,14.20
2023-04-16T00:37:20.528Z,12.73
2023-04-16T00:39:48.447Z,16.53
2023-04-16T00:42:18.150Z,17.87
2023-04-16T00:44:46.337Z,15.77
2023-04-16T00:47:14.409Z,18.33
2023-04-16T00:49:42.697Z,18.57
2023-04-16T00:52:12.955Z,20.07
2023-04-16T00:54:42.844Z,20.00
2023-04-16T00:57:11.557Z,21.33
2023-04-16T00:59:42.342Z,23.87
2023-04-16T01:02:10.253Z,24.40
2023-04-16T01:04:38.264Z,27.30
2023-04-16T01:07:06.178Z,26.83
2023-04-16T01:09:34.636Z,30.43
2023-04-16T01:12:04.400Z,30.80
2023-04-16T01:14:36.225Z,29.80
2023-04-16T01:17:05.607Z,31.43
2023-04-16T01:19:36.233Z,31.43
2023-04-16T01:22:06.467Z,31.47
2023-04-16T01:24:36.381Z,32.03
2023-04-16T01:27:04.354Z,33.57
2023-04-16T01:29:32.266Z,32.10
2023-04-16T01:32:01.439Z,32.23
2023-04-16T01:34:33.158Z,31.70
2023-04-16T01:37:01.101Z,31.73
2023-04-16T01:39:30.458Z,32.50
2023-04-16T01:41:59.373Z,31.13
2023-04-16T01:44:27.967Z,31.47
2023-04-16T01:46:56.013Z,32.57
2023-04-16T01:49:24.350Z,32.27
2023-04-16T01:51:52.953Z,33.20
2023-04-16T01:54:20.860Z,34.53
2023-04-16T01:56:50.617Z,32.60
2023-04-16T01:59:18.624Z,32.80
2023-04-16T02:01:46.630Z,32.17
2023-04-16T02:04:15.010Z,33.27
2023-04-16T02:06:42.914Z,32.27
2023-04-16T02:09:10.966Z,32.13
2023-04-16T02:11:40.411Z,33.73
2023-04-16T02:14:09.790Z,31.80
2023-04-16T02:16:37.820Z,33.23
2023-04-16T02:19:12.710Z,33.33
2023-04-16T02:21:42.641Z,31.80
2023-04-16T02:24:10.860Z,33.03
2023-04-16T02:26:38.803Z,30.83
2023-04-16T02:29:16.384Z,33.23
2023-04-16T02:31:49.053Z,33.03
2023-04-16T02:34:17.126Z,34.13
2023-04-16T02:36:45.024Z,32.97
2023-04-16T02:39:13.189Z,33.73
2023-04-16T02:41:41.059Z,33.10
2023-04-16T02:44:09.036Z,32.00
2023-04-16T02:46:38.233Z,33.43
2023-04-16T02:49:06.699Z,33.20
2023-04-16T02:51:34.912Z,33.90
2023-04-16T02:54:03.079Z,32.07
2023-04-16T02:56:31.478Z,32.53
2023-04-16T02:58:59.402Z,33.93
2023-04-16T03:01:28.522Z,33.07
2023-04-16T03:03:57.948Z,31.90
2023-04-16T03:06:26.169Z,32.90
2023-04-16T03:08:54.057Z,33.67
2023-04-16T03:11:21.974Z,32.07
2023-04-16T03:13:50.092Z,34.17
2023-04-16T03:16:18.029Z,34.33
2023-04-16T03:18:45.956Z,34.17
2023-04-16T03:21:15.418Z,33.87
2023-04-16T03:23:43.281Z,33.57
2023-04-16T03:26:11.465Z,33.57
2023-04-16T03:28:39.344Z,34.83
2023-04-16T03:31:07.262Z,34.00
2023-04-16T03:33:36.665Z,35.70
2023-04-16T03:36:06.407Z,35.47
2023-04-16T03:38:35.762Z,36.80
2023-04-16T03:41:03.766Z,37.33
2023-04-16T03:43:34.100Z,36.57
2023-04-16T03:46:02.114Z,36.97
2023-04-16T03:48:30.163Z,37.67
2023-04-16T03:50:59.163Z,36.37
2023-04-16T03:53:27.071Z,37.43
2023-04-16T03:55:56.557Z,37.13
2023-04-16T03:58:25.179Z,35.97
2023-04-16T04:00:54.941Z,34.87
2023-04-16T04:03:23.201Z,35.93
2023-04-16T04:05:51.550Z,35.90
2023-04-16T04:08:26.038Z,34.87
2023-04-16T04:10:53.933Z,35.97
2023-04-16T04:13:25.360Z,35.23
2023-04-16T04:15:53.981Z,36.87
2023-04-16T04:18:22.824Z,36.37
2023-04-16T04:20:51.070Z,37.30
2023-04-16T04:23:21.645Z,36.13
2023-04-16T04:25:49.615Z,38.00
2023-04-16T04:28:17.615Z,37.73
2023-04-16T04:30:46.856Z,36.63
2023-04-16T04:33:15.020Z,34.50
2023-04-16T04:35:43.474Z,35.40
2023-04-16T04:38:12.041Z,36.67
2023-04-16T04:40:41.388Z,35.10
2023-04-16T04:43:09.810Z,37.73
2023-04-16T04:45:37.754Z,36.17
2023-04-16T04:48:08.211Z,34.97
2023-04-16T04:50:36.837Z,36.73
2023-04-16T04:53:09.780Z,32.47
2023-04-16T04:55:38.158Z,34.13
2023-04-16T04:58:07.378Z,35.40
2023-04-16T05:00:36.595Z,35.47
2023-04-16T05:03:12.329Z,33.13
2023-04-16T05:05:41.478Z,32.47
2023-04-16T05:08:09.364Z,31.63
2023-04-16T05:10:37.522Z,30.27
2023-04-16T05:13:05.433Z,28.43
2023-04-16T05:15:33.356Z,26.70
2023-04-16T05:18:01.347Z,24.37
2023-04-16T05:20:30.870Z,24.67
2023-04-16T05:22:58.980Z,23.00
2023-04-16T05:25:26.886Z,22.10
2023-04-16T05:27:54.741Z,19.53
2023-04-16T05:30:22.917Z,18.63
2023-04-16T05:32:51.635Z,17.93
2023-04-16T05:35:19.693Z,19.63
2023-04-16T05:37:48.885Z,18.87
2023-04-16T05:40:16.940Z,22.13
2023-04-16T05:42:45.114Z,29.30
2023-04-16T05:45:13.445Z,42.33
2023-04-16T05:47:41.348Z,40.83
2023-04-16T05:50:10.219Z,53.20
2023-04-16T05:52:39.259Z,20.63
2023-04-16T05:55:09.518Z,17.50
2023-04-16T05:57:37.361Z,17.07
2023-04-16T06:00:06.949Z,16.83
2023-04-16T06:02:40.449Z,15.77
2023-04-16T06:05:09.613Z,15.17
2023-04-16T06:07:37.513Z,15.17
2023-04-16T06:10:06.399Z,14.60
2023-04-16T06:12:35.709Z,15.23
2023-04-16T06:15:03.706Z,15.43
2023-04-16T06:17:31.613Z,14.27
2023-04-16T06:19:59.496Z,14.87
2023-04-16T06:22:27.628Z,15.30
2023-04-16T06:24:58.158Z,17.10
2023-04-16T06:27:26.075Z,15.20
2023-04-16T06:29:55.594Z,16.83
2023-04-16T06:32:26.448Z,16.83
2023-04-16T06:34:54.410Z,16.60
2023-04-16T06:37:22.329Z,16.10
2023-04-16T06:39:50.260Z,14.80
2023-04-16T06:42:18.580Z,15.10
2023-04-16T06:44:47.764Z,15.17
2023-04-16T06:47:17.237Z,13.40
2023-04-16T06:49:45.334Z,13.70
2023-04-16T06:52:13.726Z,13.70
2023-04-16T06:54:41.681Z,13.67
2023-04-16T06:57:09.571Z,13.20
2023-04-16T06:59:37.469Z,13.97
2023-04-16T07:02:05.533Z,13.77
2023-04-16T07:04:34.798Z,13.17
2023-04-16T07:07:03.075Z,13.30
2023-04-16T07:09:32.037Z,14.13
2023-04-16T07:11:59.989Z,12.77
2023-04-16T07:14:27.868Z,12.87
2023-04-16T07:16:55.787Z,12.17
2023-04-16T07:19:23.839Z,12.40
2023-04-16T07:21:53.231Z,14.03
2023-04-16T07:24:21.138Z,12.50
2023-04-16T07:26:49.018Z,12.13
2023-04-16T07:29:17.349Z,11.87
2023-04-16T07:31:46.518Z,11.13
2023-04-16T07:34:14.747Z,11.87
2023-04-16T07:36:42.626Z,12.53
2023-04-16T07:39:13.149Z,11.00
2023-04-16T07:41:41.413Z,13.67
2023-04-16T07:44:09.625Z,13.50
2023-04-16T07:46:46.385Z,14.13
2023-04-16T07:49:16.001Z,14.23
2023-04-16T07:51:44.415Z,14.50
2023-04-16T07:54:13.701Z,13.23
2023-04-16T07:56:41.595Z,13.63
2023-04-16T07:59:22.120Z,12.27
2023-04-16T08:01:54.971Z,12.43
2023-04-16T08:04:25.501Z,13.43
2023-04-16T08:06:54.759Z,13.10
2023-04-16T08:09:29.394Z,12.93
2023-04-16T08:11:57.492Z,12.70
2023-04-16T08:14:25.418Z,12.33
2023-04-16T08:16:53.414Z,12.37
2023-04-16T08:19:21.455Z,12.90
2023-04-16T08:21:49.321Z,12.07
2023-04-16T08:24:17.269Z,12.33
2023-04-16T08:26:46.445Z,12.53
2023-04-16T08:29:14.347Z,11.73
2023-04-16T08:31:42.952Z,11.70
2023-04-16T08:34:12.310Z,11.07
2023-04-16T08:36:41.195Z,10.90
2023-04-16T08:39:09.970Z,11.27
2023-04-16T08:41:42.810Z,11.57
2023-04-16T08:44:20.825Z,11.13
2023-04-16T08:46:49.010Z,11.57
2023-04-16T08:49:19.081Z,12.47
2023-04-16T08:51:53.016Z,13.53
2023-04-16T08:54:33.223Z,13.13
2023-04-16T08:57:06.556Z,13.33
2023-04-16T08:59:37.347Z,13.13
2023-04-16T09:02:07.166Z,14.53
2023-04-16T09:04:37.556Z,16.13
2023-04-16T09:07:09.752Z,15.17
2023-04-16T09:09:39.794Z,15.67
2023-04-16T09:12:09.810Z,16.13
2023-04-16T09:14:41.846Z,14.40
2023-04-16T09:17:11.110Z,15.37
2023-04-16T09:19:39.198Z,14.70
2023-04-16T09:22:07.528Z,15.73
2023-04-16T09:24:35.907Z,15.33
2023-04-16T09:27:04.510Z,14.43
2023-04-16T09:29:38.124Z,16.50
2023-04-16T09:32:09.958Z,14.87
2023-04-16T09:34:56.627Z,16.13
2023-04-16T09:37:25.552Z,16.90
2023-04-16T09:39:58.983Z,19.10
2023-04-16T09:42:29.353Z,18.00
2023-04-16T09:45:00.838Z,19.20
2023-04-16T09:47:42.503Z,18.53
2023-04-16T09:50:18.163Z,19.33
2023-04-16T09:52:51.449Z,18.67
2023-04-16T09:55:24.631Z,19.10
2023-04-16T09:58:00.885Z,18.03
2023-04-16T10:00:31.836Z,17.17
2023-04-16T10:03:07.656Z,18.83
2023-04-16T10:05:36.488Z,19.70
2023-04-16T10:08:11.835Z,19.60
2023-04-16T10:10:39.864Z,19.40
2023-04-16T10:13:08.037Z,19.50
2023-04-16T10:15:37.625Z,19.50
2023-04-16T10:18:07.309Z,20.30
2023-04-16T10:20:36.164Z,20.13
2023-04-16T10:23:04.930Z,20.60
2023-04-16T10:25:33.969Z,20.27
2023-04-16T10:28:02.333Z,19.93
2023-04-16T10:30:31.042Z,19.43
2023-04-16T10:33:01.273Z,19.43
2023-04-16T10:35:29.176Z,20.27
2023-04-16T10:37:58.363Z,18.70
2023-04-16T10:40:29.413Z,19.33
2023-04-16T10:42:59.409Z,19.40
2023-04-16T10:45:38.872Z,18.47
2023-04-16T10:48:09.884Z,19.40
2023-04-16T10:50:39.633Z,18.80
2023-04-16T10:53:21.923Z,19.53
2023-04-16T10:56:15.551Z,18.83
2023-04-16T10:58:43.602Z,20.07
2023-04-16T11:01:16.801Z,18.60
2023-04-16T11:03:49.649Z,19.07
2023-04-16T11:06:26.168Z,19.00
2023-04-16T11:08:55.237Z,19.23
2023-04-16T11:11:24.361Z,19.37
2023-04-16T11:13:57.768Z,21.07
2023-04-16T11:16:27.441Z,19.27
2023-04-16T11:18:57.975Z,18.67
2023-04-16T11:21:26.628Z,18.90
2023-04-16T11:23:56.669Z,18.83
2023-04-16T11:26:27.421Z,19.50
2023-04-16T11:28:57.106Z,19.47
2023-04-16T11:31:27.097Z,19.97
2023-04-16T11:33:59.379Z,21.27
2023-04-16T11:36:27.988Z,20.00
2023-04-16T11:39:04.398Z,18.93
2023-04-16T11:41:32.611Z,19.90
2023-04-16T11:44:00.532Z,20.70
2023-04-16T11:46:40.550Z,19.43
2023-04-16T11:49:10.240Z,20.53
2023-04-16T11:51:42.087Z,21.30
2023-04-16T11:54:12.074Z,19.13
2023-04-16T11:56:47.528Z,19.53
2023-04-16T11:59:17.965Z,18.37
2023-04-16T12:01:50.946Z,17.90
2023-04-16T12:04:22.436Z,18.50
2023-04-16T12:07:11.807Z,17.10
2023-04-16T12:09:42.114Z,17.83
2023-04-16T12:12:30.479Z,18.37
2023-04-16T12:14:59.693Z,18.17
2023-04-16T12:17:27.752Z,19.50
2023-04-16T12:20:00.833Z,17.80
2023-04-16T12:22:30.979Z,18.70
2023-04-16T12:25:03.857Z,18.17
2023-04-16T12:27:47.306Z,17.60
2023-04-16T12:30:17.348Z,17.33
2023-04-16T12:32:50.115Z,17.40
2023-04-16T12:35:33.610Z,17.27
2023-04-16T12:38:03.456Z,17.47
2023-04-16T12:40:31.472Z,17.93
2023-04-16T12:42:59.362Z,17.53
2023-04-16T12:45:27.302Z,17.00
2023-04-16T12:47:55.867Z,17.07
2023-04-16T12:50:24.060Z,17.33
2023-04-16T12:52:53.303Z,17.60
2023-04-16T12:55:21.320Z,17.37
2023-04-16T12:57:50.259Z,16.07
2023-04-16T13:00:19.173Z,16.80
2023-04-16T13:02:47.255Z,16.97
2023-04-16T13:05:16.564Z,17.53
2023-04-16T13:07:44.584Z,17.33
2023-04-16T13:10:14.028Z,17.43
2023-04-16T13:12:42.069Z,19.93
2023-04-16T13:15:11.572Z,19.67
2023-04-16T13:17:39.527Z,20.20
2023-04-16T13:20:09.008Z,23.47
2023-04-16T13:22:37.040Z,22.80
2023-04-16T13:25:05.908Z,24.57
2023-04-16T13:27:35.434Z,27.00
2023-04-16T13:30:03.345Z,27.30
2023-04-16T13:32:31.265Z,28.73
2023-04-16T13:35:00.126Z,29.80
2023-04-16T13:37:28.019Z,28.37
2023-04-16T13:39:56.451Z,27.87
2023-04-16T13:42:24.435Z,26.00
2023-04-16T13:44:55.034Z,25.10
2023-04-16T13:47:23.345Z,26.23
2023-04-16T13:49:51.265Z,22.43
2023-04-16T13:52:19.451Z,21.53
2023-04-16T13:54:47.322Z,23.13
2023-04-16T13:57:20.798Z,21.47
2023-04-16T13:59:48.853Z,21.67
2023-04-16T14:02:18.360Z,20.80
2023-04-16T14:04:46.273Z,21.87
2023-04-16T14:07:15.632Z,22.73
2023-04-16T14:09:43.972Z,24.10
2023-04-16T14:12:11.914Z,23.67
2023-04-16T14:14:39.882Z,24.63
2023-04-16T14:17:08.003Z,23.53
2023-04-16T14:19:37.248Z,24.87
2023-04-16T14:22:06.517Z,25.40
2023-04-16T14:24:35.464Z,25.77
2023-04-16T14:27:03.870Z,24.03
2023-04-16T14:29:32.172Z,24.23
2023-04-16T14:32:00.169Z,23.90
2023-04-16T14:34:28.214Z,23.80
2023-04-16T14:36:57.746Z,23.83
2023-04-16T14:39:25.727Z,24.97
2023-04-16T14:41:53.924Z,24.67
2023-04-16T14:44:22.640Z,25.60
2023-04-16T14:46:50.919Z,25.13
2023-04-16T14:49:19.087Z,26.53
2023-04-16T14:51:47.278Z,24.10
2023-04-16T14:54:16.560Z,25.67
2023-04-16T14:56:44.422Z,24.53
2023-04-16T14:59:12.527Z,25.97
2023-04-16T15:01:41.405Z,25.00
2023-04-16T15:04:09.863Z,25.13
2023-04-16T15:06:38.233Z,26.63
2023-04-16T15:09:07.398Z,24.00
2023-04-16T15:11:36.947Z,24.43
2023-04-16T15:14:04.829Z,26.10
2023-04-16T15:16:32.784Z,24.53
2023-04-16T15:19:01.145Z,25.30
2023-04-16T15:21:29.855Z,26.20
2023-04-16T15:23:58.080Z,25.93
2023-04-16T15:26:26.200Z,26.13
2023-04-16T15:28:55.474Z,25.03
2023-04-16T15:31:23.636Z,23.80
2023-04-16T15:33:52.159Z,25.10
2023-04-16T15:36:20.779Z,26.07
2023-04-16T15:38:48.870Z,26.00
2023-04-16T15:41:16.769Z,26.97
2023-04-16T15:43:45.058Z,25.93
2023-04-16T15:46:14.934Z,26.97
2023-04-16T15:48:42.891Z,26.73
2023-04-16T15:51:12.031Z,26.20
2023-04-16T15:53:40.076Z,27.60
2023-04-16T15:56:07.988Z,27.03
2023-04-16T15:58:36.113Z,26.83
2023-04-16T16:01:03.991Z,29.77
2023-04-16T16:03:36.030Z,29.10
2023-04-16T16:06:04.838Z,27.90
2023-04-16T16:08:35.804Z,29.67
2023-04-16T16:11:04.065Z,31.43
2023-04-16T16:13:32.257Z,30.13
2023-04-16T16:16:00.899Z,30.00
2023-04-16T16:18:29.437Z,29.53
2023-04-16T16:20:59.523Z,29.87
2023-04-16T16:23:27.554Z,28.30
2023-04-16T16:25:55.858Z,28.53
2023-04-16T16:28:25.013Z,29.33
2023-04-16T16:30:55.384Z,28.70
2023-04-16T16:33:23.287Z,29.07
2023-04-16T16:35:51.148Z,28.97
2023-04-16T16:38:20.788Z,27.90
2023-04-16T16:40:48.703Z,28.70
2023-04-16T16:43:16.910Z,26.53
2023-04-16T16:45:45.016Z,28.57
2023-04-16T16:48:12.948Z,26.97
2023-04-16T16:50:40.896Z,26.80
2023-04-16T16:53:09.107Z,27.73
2023-04-16T16:55:38.625Z,26.77
2023-04-16T16:58:25.079Z,28.07
2023-04-16T17:01:11.591Z,28.00
2023-04-16T17:03:59.951Z,30.00
2023-04-16T17:06:48.216Z,28.67
2023-04-16T17:09:37.617Z,29.03
2023-04-16T17:12:27.460Z,30.37
2023-04-16T17:15:15.838Z,29.33
2023-04-16T17:18:04.131Z,31.60
2023-04-16T17:20:52.602Z,31.13
2023-04-16T17:23:41.319Z,30.80
2023-04-16T17:26:29.795Z,31.17
2023-04-16T17:29:20.769Z,29.77
2023-04-16T17:32:09.361Z,32.30
2023-04-16T17:34:57.915Z,31.90
2023-04-16T17:37:46.399Z,31.23
2023-04-16T17:40:35.020Z,30.87
2023-04-16T17:43:24.012Z,29.30
2023-04-16T17:46:13.650Z,31.83
2023-04-16T17:49:01.926Z,32.33
2023-04-16T17:51:50.182Z,31.83
2023-04-16T17:54:38.668Z,31.47
2023-04-16T17:57:27.742Z,28.30
2023-04-16T18:00:17.237Z,30.33
2023-04-16T18:03:09.703Z,32.97
2023-04-16T18:05:58.072Z,32.83
2023-04-16T18:08:46.389Z,33.07
2023-04-16T18:11:35.020Z,32.63
2023-04-16T18:14:23.534Z,31.87
2023-04-16T18:17:12.452Z,30.37
2023-04-16T18:20:02.493Z,30.90
2023-04-16T18:22:50.808Z,29.10
2023-04-16T18:25:40.315Z,26.40
2023-04-16T18:28:28.980Z,26.17
2023-04-16T18:31:20.918Z,25.87
2023-04-16T18:34:09.716Z,25.60
2023-04-16T18:36:59.374Z,22.87
2023-04-16T18:39:47.582Z,24.87
2023-04-16T18:42:37.119Z,23.37
2023-04-16T18:45:28.172Z,22.93
2023-04-16T18:48:16.609Z,19.87
2023-04-16T18:51:05.355Z,19.80
2023-04-16T18:53:55.262Z,19.43
2023-04-16T18:56:43.909Z,19.77
2023-04-16T18:59:32.108Z,18.33
2023-04-16T19:02:20.733Z,19.10
2023-04-16T19:05:10.440Z,18.23
2023-04-16T19:07:59.061Z,18.47
2023-04-16T19:10:50.064Z,19.07
2023-04-16T19:13:39.216Z,18.80
2023-04-16T19:16:27.809Z,18.20
2023-04-16T19:19:16.437Z,18.07
2023-04-16T19:22:04.665Z,17.80
2023-04-16T19:24:54.578Z,17.70
2023-04-16T19:27:44.346Z,17.17
2023-04-16T19:30:32.592Z,15.83
2023-04-16T19:33:21.661Z,16.83
2023-04-16T19:36:09.973Z,17.07
2023-04-16T19:38:58.173Z,16.70
2023-04-16T19:41:46.406Z,16.10
2023-04-16T19:44:35.932Z,15.33
2023-04-16T19:47:24.420Z,15.80
2023-04-16T19:50:12.882Z,15.20
2023-04-16T19:53:01.423Z,17.60
2023-04-16T19:55:49.775Z,16.77
2023-04-16T19:58:39.156Z,17.57
2023-04-16T20:01:30.752Z,16.53
2023-04-16T20:04:19.065Z,18.03
2023-04-16T20:07:07.365Z,17.70
2023-04-16T20:09:55.760Z,18.13
2023-04-16T20:12:43.975Z,18.30
2023-04-16T20:15:32.177Z,18.67
2023-04-16T20:18:22.182Z,18.90
2023-04-16T20:21:11.748Z,18.43
2023-04-16T20:24:00.485Z,19.30
2023-04-16T20:26:48.786Z,18.30
2023-04-16T20:29:37.330Z,18.30
2023-04-16T20:32:27.849Z,18.43
2023-04-16T20:35:17.554Z,19.20
2023-04-16T20:38:05.784Z,19.00
2023-04-16T20:41:06.128Z,17.93
2023-04-16T20:43:54.381Z,18.40
2023-04-16T20:46:44.245Z,18.87
2023-04-16T20:49:34.651Z,18.07
2023-04-16T20:52:24.146Z,19.37
2023-04-16T20:55:12.367Z,19.57
2023-04-16T20:58:00.524Z,19.87
2023-04-16T21:00:50.899Z,18.37
2023-04-16T21:03:39.504Z,19.37
2023-04-16T21:06:27.784Z,18.30
2023-04-16T21:09:17.401Z,17.93
2023-04-16T21:12:06.646Z,18.10
2023-04-16T21:14:54.857Z,17.70
2023-04-16T21:17:43.101Z,16.80
2023-04-16T21:20:31.692Z,17.80
2023-04-16T21:23:19.891Z,17.33
2023-04-16T21:26:09.429Z,17.13
2023-04-16T21:28:57.624Z,18.27
2023-04-16T21:31:46.248Z,18.60
2023-04-16T21:34:34.493Z,18.90
2023-04-16T21:37:22.708Z,19.50
2023-04-16T21:40:11.911Z,19.63
2023-04-16T21:43:01.518Z,17.83
2023-04-16T21:45:49.745Z,18.27
2023-04-16T21:48:37.985Z,19.83
2023-04-16T21:51:29.818Z,18.93
2023-04-16T21:54:20.135Z,19.33
2023-04-16T21:57:08.537Z,18.13
2023-04-16T21:59:58.538Z,18.43
2023-04-16T22:02:46.878Z,19.03
2023-04-16T22:05:35.352Z,18.53
2023-04-16T22:08:24.877Z,19.43
2023-04-16T22:11:13.433Z,20.10
2023-04-16T22:14:01.654Z,18.77
2023-04-16T22:16:52.281Z,19.00
2023-04-16T22:19:42.330Z,18.43
2023-04-16T22:22:30.546Z,19.33
2023-04-16T22:25:18.754Z,18.73
2023-04-16T22:28:07.177Z,18.60
2023-04-16T22:30:55.339Z,19.27
2023-04-16T22:33:44.925Z,20.07
2023-04-16T22:36:33.129Z,20.43
2023-04-16T22:39:21.462Z,20.20
2023-04-16T22:42:10.030Z,20.63
2023-04-16T22:44:58.466Z,19.97
2023-04-16T22:47:46.691Z,20.07
2023-04-16T22:50:36.813Z,18.27
2023-04-16T22:53:25.466Z,17.93
2023-04-16T22:56:13.666Z,18.13
2023-04-16T22:59:02.184Z,19.17
2023-04-16T23:01:51.084Z,17.77
2023-04-16T23:04:39.371Z,18.53
2023-04-16T23:07:28.927Z,18.13
2023-04-16T23:10:17.643Z,17.73
2023-04-16T23:13:05.835Z,17.50
2023-04-16T23:15:54.135Z,18.47
2023-04-16T23:18:42.394Z,18.40
2023-04-16T23:21:30.893Z,18.47
2023-04-16T23:24:20.410Z,19.30
2023-04-16T23:27:08.604Z,19.33
2023-04-16T23:29:57.123Z,19.47
2023-04-16T23:32:45.340Z,18.77
2023-04-16T23:35:33.910Z,18.70
2023-04-16T23:38:22.418Z,17.50
2023-04-16T23:41:12.155Z,17.13
2023-04-16T23:44:00.347Z,16.53
2023-04-16T23:46:48.941Z,16.10
2023-04-16T23:49:37.259Z,14.60
2023-04-16T23:52:25.792Z,13.57
2023-04-16T23:55:14.296Z,13.30
2023-04-16T23:58:03.828Z,14.30
